createdAt,value
2022-11-23T00:01:20.351Z,97005.16
2022-11-23T00:03:48.999Z,97002.50
2022-11-23T00:06:16.823Z,97009.44
2022-11-23T00:08:43.964Z,97015.44
2022-11-23T00:11:11.467Z,96998.81
2022-11-23T00:13:40.693Z,96995.34
2022-11-23T00:16:16.840Z,96990.13
2022-11-23T00:18:44.436Z,96989.13
2022-11-23T00:21:13.952Z,96995.88
2022-11-23T00:23:40.806Z,96997.91
2022-11-23T00:26:07.547Z,96988.94
2022-11-23T00:28:38.820Z,97005.59
2022-11-23T00:31:13.767Z,96991.84
2022-11-23T00:33:40.821Z,96997.03
2022-11-23T00:36:14.917Z,97003.94
2022-11-23T00:38:43.475Z,97002.34
2022-11-23T00:41:15.355Z,96998.09
2022-11-23T00:43:42.700Z,96994.16
2022-11-23T00:46:16.777Z,96995.75
2022-11-23T00:48:44.476Z,97000.47
2022-11-23T00:51:13.860Z,97004.97
2022-11-23T00:53:40.717Z,97004.13
2022-11-23T00:56:07.746Z,97002.47
2022-11-23T00:58:35.227Z,97009.41
2022-11-23T01:01:03.704Z,97005.06
2022-11-23T01:03:30.862Z,97002.25
2022-11-23T01:06:03.540Z,97001.41
2022-11-23T01:08:30.578Z,97006.72
2022-11-23T01:11:02.349Z,97002.31
2022-11-23T01:13:29.782Z,97010.88
2022-11-23T01:15:56.766Z,97008.50
2022-11-23T01:18:23.958Z,97016.47
2022-11-23T01:20:50.944Z,97014.78
2022-11-23T01:23:17.642Z,97016.47
2022-11-23T01:25:44.309Z,97013.06
2022-11-23T01:28:11.043Z,97010.38
2022-11-23T01:30:37.888Z,97013.63
2022-11-23T01:33:05.484Z,97017.94
2022-11-23T01:35:32.169Z,97018.00
2022-11-23T01:37:58.822Z,97012.81
2022-11-23T01:40:25.505Z,97019.84
2022-11-23T01:43:00.062Z,97020.59
2022-11-23T01:45:43.008Z,97018.09
2022-11-23T01:48:15.281Z,97025.88
2022-11-23T01:50:43.437Z,97029.09
2022-11-23T01:53:10.389Z,97021.28
2022-11-23T01:55:37.624Z,97035.03
2022-11-23T01:58:06.823Z,97044.34
2022-11-23T02:00:33.426Z,97038.28
2022-11-23T02:03:01.517Z,97034.06
2022-11-23T02:05:33.803Z,97036.81
2022-11-23T02:08:01.592Z,97045.63
2022-11-23T02:10:30.867Z,97048.91
2022-11-23T02:13:02.158Z,97048.94
2022-11-23T02:15:29.753Z,97053.16
2022-11-23T02:17:58.683Z,97050.75
2022-11-23T02:20:25.403Z,97050.50
2022-11-23T02:23:20.760Z,97051.38
2022-11-23T02:25:47.258Z,97058.13
2022-11-23T02:28:24.798Z,97045.91
2022-11-23T02:30:54.559Z,97053.84
2022-11-23T02:33:21.194Z,97052.16
2022-11-23T02:35:53.880Z,97053.81
2022-11-23T02:42:07.444Z,97052.59
2022-11-23T02:44:51.935Z,97062.91
2022-11-23T02:47:18.506Z,97054.16
2022-11-23T02:49:49.377Z,97059.22
2022-11-23T02:52:17.079Z,97060.22
2022-11-23T02:54:43.665Z,97059.22
2022-11-23T02:57:10.135Z,97057.44
2022-11-23T02:59:36.788Z,97055.88
2022-11-23T03:02:05.086Z,97053.16
2022-11-23T03:04:32.249Z,97050.34
2022-11-23T03:06:59.279Z,97050.34
2022-11-23T03:09:26.529Z,97054.50
2022-11-23T03:11:53.721Z,97052.81
2022-11-23T03:14:20.200Z,97050.44
2022-11-23T03:16:46.797Z,97055.81
2022-11-23T03:19:13.324Z,97056.56
2022-11-23T03:21:39.890Z,97055.72
2022-11-23T03:24:06.663Z,97051.69
2022-11-23T03:26:33.211Z,97055.88
2022-11-23T03:28:59.797Z,97051.50
2022-11-23T03:31:26.626Z,97057.38
2022-11-23T03:33:53.177Z,97057.38
2022-11-23T03:36:19.843Z,97057.50
2022-11-23T03:38:46.338Z,97060.25
2022-11-23T03:41:12.931Z,97066.47
2022-11-23T03:43:39.501Z,97062.97
2022-11-23T03:46:06.058Z,97071.59
2022-11-23T03:48:32.597Z,97070.81
2022-11-23T03:50:59.240Z,97074.22
2022-11-23T03:53:25.883Z,97062.25
2022-11-23T03:55:54.965Z,97075.94
2022-11-23T03:58:21.519Z,97067.75
2022-11-23T04:00:48.132Z,97072.38
2022-11-23T04:03:14.946Z,97078.84
2022-11-23T04:05:41.488Z,97078.41
2022-11-23T04:08:09.174Z,97082.13
2022-11-23T04:10:35.748Z,97085.66
2022-11-23T04:13:02.779Z,97092.69
2022-11-23T04:15:29.305Z,97083.19
2022-11-23T04:17:56.015Z,97081.84
2022-11-23T04:20:22.579Z,97072.69
2022-11-23T04:22:49.215Z,97077.66
2022-11-23T04:25:15.778Z,97086.88
2022-11-23T04:27:42.474Z,97073.66
2022-11-23T04:30:09.815Z,97077.03
2022-11-23T04:32:36.371Z,97070.88
2022-11-23T04:35:03.135Z,97071.50
2022-11-23T04:37:29.692Z,97072.34
2022-11-23T04:39:56.324Z,97073.16
2022-11-23T04:42:22.896Z,97076.66
2022-11-23T04:44:49.420Z,97068.88
2022-11-23T04:47:16.010Z,97075.84
2022-11-23T04:49:42.602Z,97081.91
2022-11-23T04:52:09.212Z,97076.66
2022-11-23T04:54:35.735Z,97071.44
2022-11-23T04:57:02.291Z,97061.06
2022-11-23T04:59:29.190Z,97070.59
2022-11-23T05:01:57.303Z,97064.28
2022-11-23T05:04:24.259Z,97066.06
2022-11-23T05:06:51.329Z,97075.47
2022-11-23T05:09:18.244Z,97062.19
2022-11-23T05:11:44.848Z,97069.75
2022-11-23T05:14:11.421Z,97066.94
2022-11-23T05:16:37.995Z,97070.38
2022-11-23T05:19:04.515Z,97064.22
2022-11-23T05:21:31.089Z,97071.03
2022-11-23T05:23:57.662Z,97068.22
2022-11-23T05:26:24.230Z,97063.16
2022-11-23T05:28:50.814Z,97057.16
2022-11-23T05:31:17.452Z,97057.91
2022-11-23T05:33:43.948Z,97054.66
2022-11-23T05:36:13.972Z,97053.84
2022-11-23T05:38:41.455Z,97053.03
2022-11-23T05:41:08.169Z,97051.56
2022-11-23T05:43:35.068Z,97050.91
2022-11-23T05:46:02.815Z,97048.41
2022-11-23T05:48:29.351Z,97050.34
2022-11-23T05:50:58.611Z,97053.16
2022-11-23T05:53:29.048Z,97053.19
2022-11-23T05:56:00.029Z,97054.41
2022-11-23T05:58:26.690Z,97051.50
2022-11-23T06:00:58.008Z,97048.16
2022-11-23T06:03:25.323Z,97048.34
2022-11-23T06:05:52.271Z,97055.38
2022-11-23T06:08:18.948Z,97062.34
2022-11-23T06:10:45.542Z,97065.81
2022-11-23T06:13:12.102Z,97064.97
2022-11-23T06:15:38.894Z,97066.69
2022-11-23T06:18:05.568Z,97061.56
2022-11-23T06:20:32.133Z,97068.47
2022-11-23T06:22:58.715Z,97058.13
2022-11-23T06:25:25.376Z,97065.72
2022-11-23T06:28:00.364Z,97077.25
2022-11-23T06:30:28.635Z,97076.53
2022-11-23T06:32:55.863Z,97077.63
2022-11-23T06:35:22.864Z,97075.13
2022-11-23T06:37:50.945Z,97073.22
2022-11-23T06:40:19.327Z,97077.53
2022-11-23T06:42:46.064Z,97080.06
2022-11-23T06:45:12.917Z,97076.59
2022-11-23T06:47:39.587Z,97082.53
2022-11-23T06:50:06.621Z,97089.59
2022-11-23T06:52:33.269Z,97085.22
2022-11-23T06:54:59.905Z,97094.72
2022-11-23T06:57:26.485Z,97093.16
2022-11-23T06:59:53.150Z,97091.22
2022-11-23T07:02:19.850Z,97090.50
2022-11-23T07:04:46.397Z,97088.25
2022-11-23T07:07:13.019Z,97087.16
2022-11-23T07:09:39.755Z,97087.81
2022-11-23T07:12:06.614Z,97086.88
2022-11-23T07:14:33.187Z,97092.25
2022-11-23T07:16:59.675Z,97107.16
2022-11-23T07:19:26.500Z,97102.91
2022-11-23T07:21:53.060Z,97107.28
2022-11-23T07:24:19.646Z,97106.34
2022-11-23T07:26:46.214Z,97101.13
2022-11-23T07:29:12.985Z,97104.44
2022-11-23T07:31:39.488Z,97099.22
2022-11-23T07:34:06.115Z,97111.25
2022-11-23T07:36:33.355Z,97114.78
2022-11-23T07:38:59.993Z,97120.84
2022-11-23T07:41:27.762Z,97132.97
2022-11-23T07:43:54.586Z,97132.06
2022-11-23T07:46:21.573Z,97139.81
2022-11-23T07:48:48.141Z,97151.09
2022-11-23T07:51:16.387Z,97150.09
2022-11-23T07:53:42.921Z,97142.09
2022-11-23T07:56:09.607Z,97140.19
2022-11-23T07:58:36.206Z,97152.03
2022-11-23T08:01:02.994Z,97149.50
2022-11-23T08:03:30.256Z,97150.22
2022-11-23T08:05:57.235Z,97151.88
2022-11-23T08:08:24.013Z,97157.59
2022-11-23T08:10:53.803Z,97153.47
2022-11-23T08:13:21.873Z,97159.22
2022-11-23T08:15:53.974Z,97146.66
2022-11-23T08:18:21.890Z,97152.69
2022-11-23T08:20:48.575Z,97148.41
2022-11-23T08:23:15.343Z,97155.84
2022-11-23T08:25:41.963Z,97145.28
2022-11-23T08:28:08.821Z,97148.84
2022-11-23T08:30:36.311Z,97152.75
2022-11-23T08:33:04.858Z,97152.72
2022-11-23T08:35:34.307Z,97151.81
2022-11-23T08:38:01.035Z,97161.31
2022-11-23T08:40:29.879Z,97163.88
2022-11-23T08:42:56.515Z,97171.34
2022-11-23T08:45:23.226Z,97165.13
2022-11-23T08:47:51.135Z,97166.84
2022-11-23T08:50:18.309Z,97177.22
2022-11-23T08:52:44.867Z,97173.88
2022-11-23T08:55:11.848Z,97173.88
2022-11-23T08:57:38.944Z,97180.63
2022-11-23T09:00:06.424Z,97173.53
2022-11-23T09:02:33.095Z,97168.88
2022-11-23T09:05:00.873Z,97178.47
2022-11-23T09:07:27.649Z,97176.28
2022-11-23T09:09:54.295Z,97173.47
2022-11-23T09:12:20.868Z,97164.75
2022-11-23T09:14:47.469Z,97170.41
2022-11-23T09:17:14.050Z,97176.91
2022-11-23T09:19:40.645Z,97176.59
2022-11-23T09:22:07.153Z,97174.75
2022-11-23T09:24:34.360Z,97172.03
2022-11-23T09:27:01.162Z,97177.06
2022-11-23T09:29:28.566Z,97172.88
2022-11-23T09:31:55.225Z,97166.16
2022-11-23T09:34:21.925Z,97171.38
2022-11-23T09:36:49.001Z,97175.22
2022-11-23T09:39:15.655Z,97171.63
2022-11-23T09:42:00.998Z,97169.69
2022-11-23T09:44:36.606Z,97177.31
2022-11-23T09:47:21.387Z,97178.19
2022-11-23T09:50:06.194Z,97176.31
2022-11-23T09:52:35.057Z,97178.84
2022-11-23T09:55:11.296Z,97182.13
2022-11-23T09:57:40.845Z,97176.53
2022-11-23T10:00:21.914Z,97177.81
2022-11-23T10:02:49.181Z,97175.25
2022-11-23T10:05:22.630Z,97179.16
2022-11-23T10:08:11.240Z,97171.38
2022-11-23T10:11:03.282Z,97181.81
2022-11-23T10:13:47.896Z,97170.34
2022-11-23T10:16:37.363Z,97168.44
2022-11-23T10:19:22.285Z,97179.16
2022-11-23T10:22:03.744Z,97176.53
2022-11-23T10:24:35.770Z,97168.72
2022-11-23T10:27:03.348Z,97178.25
2022-11-23T10:29:37.767Z,97171.06
2022-11-23T10:32:15.817Z,97171.91
2022-11-23T10:35:02.399Z,97164.78
2022-11-23T10:37:29.237Z,97165.53
2022-11-23T10:39:55.893Z,97165.53
2022-11-23T10:42:29.059Z,97166.22
2022-11-23T10:44:57.501Z,97163.13
2022-11-23T10:48:00.345Z,97154.50
2022-11-23T10:50:37.469Z,97158.81
2022-11-23T10:53:08.405Z,97162.22
2022-11-23T10:55:59.809Z,97164.25
2022-11-23T10:58:31.879Z,97161.47
2022-11-23T11:01:14.003Z,97152.97
2022-11-23T11:03:40.802Z,97148.53
2022-11-23T11:06:09.388Z,97151.72
2022-11-23T11:09:00.465Z,97152.56
2022-11-23T11:11:33.161Z,97145.31
2022-11-23T11:14:24.755Z,97137.47
2022-11-23T11:16:54.076Z,97142.16
2022-11-23T11:19:28.094Z,97140.31
2022-11-23T11:21:55.669Z,97138.59
2022-11-23T11:24:31.892Z,97138.88
2022-11-23T11:27:02.885Z,97132.91
2022-11-23T11:29:32.695Z,97126.44
2022-11-23T11:32:14.047Z,97120.00
2022-11-23T11:34:52.392Z,97127.63
2022-11-23T11:37:33.176Z,97130.69
2022-11-23T11:40:08.439Z,97131.44
2022-11-23T11:42:45.474Z,97134.63
2022-11-23T11:45:21.153Z,97123.03
2022-11-23T11:47:55.855Z,97127.56
2022-11-23T11:50:31.874Z,97130.31
2022-11-23T11:53:05.969Z,97126.78
2022-11-23T11:55:48.811Z,97124.38
2022-11-23T11:58:17.286Z,97127.91
2022-11-23T12:01:01.056Z,97128.59
2022-11-23T12:04:00.148Z,97130.75
2022-11-23T12:06:38.177Z,97124.50
2022-11-23T12:09:14.610Z,97120.16
2022-11-23T12:11:41.790Z,97124.38
2022-11-23T12:14:14.170Z,97130.63
2022-11-23T12:17:31.959Z,97119.56
2022-11-23T12:20:18.290Z,97118.50
2022-11-23T12:23:04.180Z,97116.13
2022-11-23T12:25:37.047Z,97116.06
2022-11-23T12:28:11.257Z,97113.19
2022-11-23T12:30:51.121Z,97121.81
2022-11-23T12:33:23.717Z,97116.28
2022-11-23T12:36:05.606Z,97120.00
2022-11-23T12:38:44.157Z,97121.69
2022-11-23T12:41:47.820Z,97111.59
2022-11-23T12:44:39.757Z,97120.31
2022-11-23T12:47:16.948Z,97117.25
2022-11-23T12:49:52.055Z,97110.53
2022-11-23T12:52:39.593Z,97117.16
2022-11-23T12:55:33.612Z,97117.00
2022-11-23T12:58:12.034Z,97108.81
2022-11-23T13:00:46.008Z,97114.19
2022-11-23T13:03:12.646Z,97115.22
2022-11-23T13:06:17.754Z,97114.75
2022-11-23T13:08:53.068Z,97115.06
2022-11-23T13:11:36.956Z,97115.09
2022-11-23T13:14:06.314Z,97118.81
2022-11-23T13:16:46.844Z,97115.19
2022-11-23T13:19:35.640Z,97106.50
2022-11-23T13:22:05.643Z,97105.06
2022-11-23T13:24:35.024Z,97108.47
2022-11-23T13:27:14.227Z,97113.34
2022-11-23T13:30:01.156Z,97109.09
2022-11-23T13:32:39.937Z,97103.94
2022-11-23T13:35:18.648Z,97098.00
2022-11-23T13:38:14.456Z,97106.63
2022-11-23T13:40:43.831Z,97106.34
2022-11-23T13:43:19.386Z,97100.25
2022-11-23T13:46:06.127Z,97101.28
2022-11-23T13:48:56.207Z,97098.00
2022-11-23T13:51:32.488Z,97093.69
2022-11-23T13:54:19.066Z,97093.88
2022-11-23T13:56:46.313Z,97082.63
2022-11-23T13:59:25.048Z,97089.56
2022-11-23T14:02:08.385Z,97085.81
2022-11-23T14:04:47.056Z,97085.13
2022-11-23T14:07:26.975Z,97085.28
2022-11-23T14:10:09.623Z,97080.47
2022-11-23T14:12:43.731Z,97077.94
2022-11-23T14:15:26.385Z,97081.47
2022-11-23T14:18:11.973Z,97080.13
2022-11-23T14:20:44.293Z,97081.03
2022-11-23T14:23:41.595Z,97073.94
2022-11-23T14:26:35.790Z,97084.97
2022-11-23T14:29:24.126Z,97085.97
2022-11-23T14:32:28.654Z,97085.91
2022-11-23T14:35:22.753Z,97089.72
2022-11-23T14:38:07.715Z,97085.56
2022-11-23T14:40:56.096Z,97078.78
2022-11-23T14:43:22.879Z,97081.03
2022-11-23T14:45:49.635Z,97079.38
2022-11-23T14:48:34.372Z,97082.97
2022-11-23T14:51:13.872Z,97083.94
2022-11-23T14:53:49.046Z,97078.06
2022-11-23T14:56:37.282Z,97077.97
2022-11-23T14:59:22.768Z,97076.34
2022-11-23T15:02:02.272Z,97072.22
2022-11-23T15:04:36.346Z,97076.94
2022-11-23T15:07:16.926Z,97080.16
2022-11-23T15:10:08.982Z,97079.97
2022-11-23T15:12:47.042Z,97074.94
2022-11-23T15:15:19.668Z,97070.03
2022-11-23T15:18:00.044Z,97076.56
2022-11-23T15:20:30.402Z,97075.25
2022-11-23T15:22:57.223Z,97075.47
2022-11-23T15:25:24.244Z,97068.13
2022-11-23T15:27:51.041Z,97077.84
2022-11-23T15:30:27.197Z,97077.25
2022-11-23T15:33:05.519Z,97069.66
2022-11-23T15:35:35.397Z,97078.00
2022-11-23T15:38:04.617Z,97076.66
2022-11-23T15:40:35.611Z,97071.44
2022-11-23T15:43:02.768Z,97070.09
2022-11-23T15:45:41.478Z,97068.59
2022-11-23T15:48:16.303Z,97072.84
2022-11-23T15:50:54.039Z,97078.91
2022-11-23T15:53:30.033Z,97082.63
2022-11-23T15:56:03.385Z,97075.09
2022-11-23T15:58:31.092Z,97074.47
2022-11-23T16:01:13.993Z,97071.16
2022-11-23T16:03:52.499Z,97074.47
2022-11-23T16:06:24.897Z,97073.84
2022-11-23T16:08:51.840Z,97076.50
2022-11-23T16:11:29.156Z,97071.50
2022-11-23T16:14:18.377Z,97068.78
2022-11-23T16:16:48.303Z,97069.97
2022-11-23T16:19:30.580Z,97070.81
2022-11-23T16:22:03.108Z,97077.97
2022-11-23T16:24:32.519Z,97069.13
2022-11-23T16:26:59.895Z,97070.06
2022-11-23T16:29:33.872Z,97077.84
2022-11-23T16:32:03.418Z,97082.38
2022-11-23T16:34:30.276Z,97075.56
2022-11-23T16:36:59.179Z,97086.69
2022-11-23T16:39:26.160Z,97084.28
2022-11-23T16:41:52.720Z,97080.91
2022-11-23T16:44:20.131Z,97091.41
2022-11-23T16:46:47.942Z,97093.38
2022-11-23T16:49:20.778Z,97094.44
2022-11-23T16:51:56.236Z,97102.50
2022-11-23T16:54:25.073Z,97110.53
2022-11-23T16:56:52.545Z,97103.66
2022-11-23T16:59:19.707Z,97106.47
2022-11-23T17:01:52.482Z,97115.25
2022-11-23T17:04:22.432Z,97105.78
2022-11-23T17:06:49.567Z,97121.31
2022-11-23T17:09:16.233Z,97113.81
2022-11-23T17:11:46.864Z,97129.50
2022-11-23T17:14:18.848Z,97117.06
2022-11-23T17:16:46.851Z,97117.88
2022-11-23T17:19:19.613Z,97110.69
2022-11-23T17:21:46.969Z,97105.31
2022-11-23T17:24:14.113Z,97103.38
2022-11-23T17:26:44.838Z,97100.81
2022-11-23T17:29:19.544Z,97101.72
2022-11-23T17:31:47.583Z,97105.94
2022-11-23T17:34:14.740Z,97112.91
2022-11-23T17:36:46.825Z,97120.81
2022-11-23T17:39:25.309Z,97114.97
2022-11-23T17:41:52.393Z,97117.00
2022-11-23T17:44:18.999Z,97117.88
2022-11-23T17:46:47.305Z,97132.69
2022-11-23T17:49:16.320Z,97137.06
2022-11-23T17:51:43.395Z,97145.94
2022-11-23T17:54:10.034Z,97153.16
2022-11-23T17:56:37.026Z,97155.13
2022-11-23T17:59:05.021Z,97169.06
2022-11-23T18:01:31.684Z,97167.53
2022-11-23T18:04:01.039Z,97166.91
2022-11-23T18:06:29.502Z,97172.34
2022-11-23T18:08:56.579Z,97182.09
2022-11-23T18:11:23.658Z,97180.38
2022-11-23T18:13:50.811Z,97179.50
2022-11-23T18:16:19.558Z,97191.75
2022-11-23T18:18:46.347Z,97190.13
2022-11-23T18:21:14.582Z,97187.69
2022-11-23T18:23:44.660Z,97197.31
2022-11-23T18:26:16.667Z,97202.59
2022-11-23T18:28:43.503Z,97212.94
2022-11-23T18:31:10.407Z,97214.59
2022-11-23T18:33:37.440Z,97207.28
2022-11-23T18:36:05.801Z,97205.47
2022-11-23T18:38:33.810Z,97210.38
2022-11-23T18:41:00.888Z,97208.47
2022-11-23T18:43:27.788Z,97217.06
2022-11-23T18:45:54.591Z,97212.59
2022-11-23T18:48:21.410Z,97217.59
2022-11-23T18:50:48.598Z,97220.34
2022-11-23T18:53:15.795Z,97216.88
2022-11-23T18:55:42.353Z,97219.41
2022-11-23T18:58:09.507Z,97213.44
2022-11-23T19:00:36.652Z,97213.34
2022-11-23T19:03:04.657Z,97214.84
2022-11-23T19:05:34.147Z,97211.09
2022-11-23T19:08:04.473Z,97210.25
2022-11-23T19:10:36.300Z,97214.59
2022-11-23T19:13:05.682Z,97216.47
2022-11-23T19:15:33.484Z,97206.84
2022-11-23T19:18:00.323Z,97222.50
2022-11-23T19:20:28.402Z,97228.97
2022-11-23T19:22:55.865Z,97231.03
2022-11-23T19:25:22.548Z,97234.75
2022-11-23T19:27:51.321Z,97232.13
2022-11-23T19:30:18.238Z,97226.09
2022-11-23T19:32:44.899Z,97232.13
2022-11-23T19:35:11.622Z,97234.03
2022-11-23T19:37:38.961Z,97241.91
2022-11-23T19:40:06.435Z,97237.56
2022-11-23T19:42:35.779Z,97241.88
2022-11-23T19:45:03.722Z,97245.28
2022-11-23T19:47:31.615Z,97247.81
2022-11-23T19:49:58.931Z,97249.66
2022-11-23T19:52:37.326Z,97253.97
2022-11-23T19:55:12.395Z,97251.44
2022-11-23T19:57:39.007Z,97243.66
2022-11-23T20:00:06.208Z,97249.69
2022-11-23T20:02:32.756Z,97250.41
2022-11-23T20:04:59.409Z,97252.13
2022-11-23T20:07:26.205Z,97244.00
2022-11-23T20:09:53.487Z,97252.53
2022-11-23T20:12:20.924Z,97250.84
2022-11-23T20:14:47.525Z,97260.41
2022-11-23T20:17:14.201Z,97256.09
2022-11-23T20:19:40.746Z,97258.63
2022-11-23T20:22:07.677Z,97273.56
2022-11-23T20:24:35.525Z,97265.84
2022-11-23T20:27:02.107Z,97262.38
2022-11-23T20:29:28.653Z,97266.72
2022-11-23T20:31:55.365Z,97261.44
2022-11-23T20:34:26.164Z,97269.34
2022-11-23T20:36:53.057Z,97273.81
2022-11-23T20:39:19.815Z,97275.63
2022-11-23T20:41:49.431Z,97279.13
2022-11-23T20:44:16.107Z,97278.16
2022-11-23T20:47:01.324Z,97284.22
2022-11-23T20:49:30.409Z,97283.50
2022-11-23T20:51:57.413Z,97281.84
2022-11-23T20:54:23.987Z,97279.31
2022-11-23T20:56:50.708Z,97276.75
2022-11-23T20:59:17.439Z,97275.09
2022-11-23T21:01:44.089Z,97276.66
2022-11-23T21:04:11.102Z,97274.91
2022-11-23T21:06:39.920Z,97273.06
2022-11-23T21:09:09.107Z,97279.88
2022-11-23T21:11:54.223Z,97276.19
2022-11-23T21:14:23.261Z,97273.56
2022-11-23T21:16:58.846Z,97279.28
2022-11-23T21:19:33.613Z,97284.38
2022-11-23T21:22:06.878Z,97288.56
2022-11-23T21:24:42.459Z,97296.41
2022-11-23T21:27:12.424Z,97293.72
2022-11-23T21:29:39.300Z,97297.91
2022-11-23T21:32:06.158Z,97298.88
2022-11-23T21:34:33.150Z,97304.03
2022-11-23T21:37:00.239Z,97305.69
2022-11-23T21:39:27.126Z,97306.47
2022-11-23T21:41:54.447Z,97314.31
2022-11-23T21:44:22.807Z,97308.09
2022-11-23T21:46:49.874Z,97308.88
2022-11-23T21:49:17.004Z,97316.72
2022-11-23T21:51:44.698Z,97320.03
2022-11-23T21:54:14.362Z,97318.22
2022-11-23T21:56:50.214Z,97330.09
2022-11-23T21:59:16.858Z,97326.56
2022-11-23T22:01:43.722Z,97323.91
2022-11-23T22:04:12.909Z,97325.44
2022-11-23T22:06:44.222Z,97341.94
2022-11-23T22:09:12.004Z,97341.94
2022-11-23T22:11:41.310Z,97342.13
2022-11-23T22:14:11.443Z,97357.69
2022-11-23T22:16:41.136Z,97356.97
2022-11-23T22:19:14.562Z,97357.72
2022-11-23T22:21:43.492Z,97355.91
2022-11-23T22:24:19.929Z,97361.88
2022-11-23T22:26:48.036Z,97359.34
2022-11-23T22:29:15.352Z,97368.97
2022-11-23T22:31:42.101Z,97375.03
2022-11-23T22:34:11.685Z,97384.53
2022-11-23T22:36:38.593Z,97383.78
2022-11-23T22:39:07.299Z,97392.44
2022-11-23T22:41:37.316Z,97386.44
2022-11-23T22:44:09.645Z,97392.41
2022-11-23T22:46:40.219Z,97404.47
2022-11-23T22:49:07.595Z,97404.41
2022-11-23T22:51:34.643Z,97400.13
2022-11-23T22:54:06.393Z,97403.56
2022-11-23T22:56:33.391Z,97402.59
2022-11-23T22:59:00.486Z,97399.81
2022-11-23T23:01:30.304Z,97400.66
2022-11-23T23:04:00.670Z,97397.19
2022-11-23T23:06:29.911Z,97398.81
2022-11-23T23:08:59.430Z,97396.28
2022-11-23T23:11:29.744Z,97405.81
2022-11-23T23:13:59.347Z,97409.06
2022-11-23T23:16:27.214Z,97414.38
2022-11-23T23:18:59.640Z,97421.06
2022-11-23T23:21:28.533Z,97419.44
2022-11-23T23:23:58.608Z,97426.22
2022-11-23T23:26:29.154Z,97424.63
2022-11-23T23:29:00.330Z,97428.00
2022-11-23T23:31:30.772Z,97426.19
2022-11-23T23:34:02.656Z,97429.59
2022-11-23T23:36:30.331Z,97434.81
2022-11-23T23:38:57.901Z,97432.09
2022-11-23T23:41:24.883Z,97434.63
2022-11-23T23:43:54.232Z,97433.84
2022-11-23T23:46:21.156Z,97430.31
2022-11-23T23:48:50.984Z,97440.69
2022-11-23T23:51:23.285Z,97437.28
2022-11-23T23:53:51.578Z,97440.84
2022-11-23T23:56:28.845Z,97449.28
2022-11-23T23:59:03.278Z,97446.72
